createdAt,value
2022-08-18T00:00:39.461Z,3.53
2022-08-18T00:03:55.968Z,4.22
2022-08-18T00:06:35.578Z,4.15
2022-08-18T00:09:20.639Z,3.72
2022-08-18T00:12:35.048Z,3.70
2022-08-18T00:15:20.980Z,3.83
2022-08-18T00:18:06.192Z,3.85
2022-08-18T00:20:51.814Z,3.80
2022-08-18T00:23:36.961Z,3.55
2022-08-18T00:26:22.157Z,3.55
2022-08-18T00:29:07.356Z,3.83
2022-08-18T00:31:52.904Z,3.67
2022-08-18T00:34:38.133Z,4.43
2022-08-18T00:37:24.705Z,3.75
2022-08-18T00:40:13.419Z,3.80
2022-08-18T00:43:02.146Z,3.60
2022-08-18T00:45:47.311Z,3.50
2022-08-18T00:48:32.499Z,3.45
2022-08-18T00:51:26.798Z,3.65
2022-08-18T00:54:16.153Z,2.80
2022-08-18T00:57:06.093Z,3.08
2022-08-18T01:00:02.329Z,3.45
2022-08-18T01:02:53.063Z,2.88
2022-08-18T01:06:01.831Z,2.70
2022-08-18T01:08:47.702Z,3.22
2022-08-18T01:11:34.760Z,3.28
2022-08-18T01:14:20.493Z,3.50
2022-08-18T01:17:06.069Z,3.28
2022-08-18T01:19:51.452Z,4.00
2022-08-18T01:22:50.553Z,3.10
2022-08-18T01:25:37.938Z,3.00
2022-08-18T01:28:22.995Z,3.03
2022-08-18T01:31:10.390Z,3.33
2022-08-18T01:33:58.741Z,3.40
2022-08-18T01:36:44.197Z,3.40
2022-08-18T01:41:24.377Z,3.22
2022-08-18T01:42:36.531Z,3.05
2022-08-18T01:45:21.642Z,3.83
2022-08-18T01:48:07.942Z,3.30
2022-08-18T01:50:53.057Z,3.10
2022-08-18T01:53:38.560Z,3.33
2022-08-18T01:56:24.786Z,3.47
2022-08-18T01:59:12.723Z,3.80
2022-08-18T02:01:58.096Z,3.20
2022-08-18T02:04:45.748Z,4.15
2022-08-18T02:07:36.074Z,3.05
2022-08-18T02:10:22.109Z,3.95
2022-08-18T02:13:07.970Z,3.25
2022-08-18T02:15:53.559Z,4.00
2022-08-18T02:18:48.100Z,3.35
2022-08-18T02:21:33.819Z,3.90
2022-08-18T02:24:19.579Z,3.22
2022-08-18T02:27:06.120Z,4.10
2022-08-18T02:29:51.277Z,3.15
2022-08-18T02:32:37.229Z,3.35
2022-08-18T02:35:22.396Z,2.95
2022-08-18T02:38:07.859Z,3.35
2022-08-18T02:40:58.459Z,3.40
2022-08-18T02:43:43.765Z,2.70
2022-08-18T02:46:31.167Z,3.38
2022-08-18T02:49:16.727Z,2.88
2022-08-18T02:52:02.430Z,3.70
2022-08-18T02:54:48.053Z,3.10
2022-08-18T02:57:33.478Z,3.67
2022-08-18T03:00:19.722Z,2.90
2022-08-18T03:03:05.761Z,3.50
2022-08-18T03:05:51.318Z,3.15
2022-08-18T03:08:36.817Z,2.47
2022-08-18T03:11:27.210Z,2.80
2022-08-18T03:14:13.587Z,2.78
2022-08-18T03:16:59.310Z,3.00
2022-08-18T03:19:44.543Z,3.20
2022-08-18T03:22:32.609Z,2.58
2022-08-18T03:25:18.138Z,3.22
2022-08-18T03:28:04.934Z,2.45
2022-08-18T03:30:50.166Z,3.00
2022-08-18T03:33:35.812Z,2.47
2022-08-18T03:36:23.964Z,3.05
2022-08-18T03:39:11.524Z,2.70
2022-08-18T03:42:01.245Z,2.53
2022-08-18T03:44:47.083Z,3.08
2022-08-18T03:47:32.932Z,2.60
2022-08-18T03:50:18.882Z,2.45
2022-08-18T03:53:04.515Z,2.25
2022-08-18T03:55:49.932Z,2.05
2022-08-18T03:58:35.533Z,2.40
2022-08-18T04:01:26.385Z,2.38
2022-08-18T04:04:15.527Z,2.55
2022-08-18T04:07:06.188Z,2.67
2022-08-18T04:09:51.604Z,2.58
2022-08-18T04:12:37.163Z,3.00
2022-08-18T04:15:22.505Z,2.60
2022-08-18T04:18:08.434Z,2.28
2022-08-18T04:20:59.189Z,2.47
2022-08-18T04:23:45.711Z,2.90
2022-08-18T04:26:36.701Z,2.92
2022-08-18T04:29:21.933Z,3.20
2022-08-18T04:32:07.068Z,3.15
2022-08-18T04:34:52.773Z,2.75
2022-08-18T04:37:39.747Z,3.08
2022-08-18T04:40:26.975Z,2.60
2022-08-18T04:43:12.182Z,2.60
2022-08-18T04:46:04.649Z,2.80
2022-08-18T04:48:50.003Z,2.92
2022-08-18T04:52:37.404Z,2.25
2022-08-18T04:54:41.162Z,2.67
2022-08-18T04:57:26.585Z,2.72
2022-08-18T05:00:11.812Z,2.50
2022-08-18T05:02:57.429Z,2.60
2022-08-18T05:05:42.629Z,2.75
2022-08-18T05:08:27.790Z,2.55
2022-08-18T05:11:13.112Z,2.92
2022-08-18T05:13:58.176Z,2.88
2022-08-18T05:16:48.748Z,3.30
2022-08-18T05:19:34.257Z,3.08
2022-08-18T05:22:28.366Z,2.97
2022-08-18T05:25:16.365Z,2.90
2022-08-18T05:28:01.807Z,2.95
2022-08-18T05:30:47.640Z,3.03
2022-08-18T05:33:32.962Z,3.55
2022-08-18T05:36:21.509Z,3.40
2022-08-18T05:39:23.693Z,3.30
2022-08-18T05:42:15.948Z,3.53
2022-08-18T05:45:03.420Z,3.20
2022-08-18T05:47:48.997Z,3.53
2022-08-18T05:50:35.410Z,3.00
2022-08-18T05:53:21.173Z,4.15
2022-08-18T05:56:10.292Z,3.58
2022-08-18T05:58:56.610Z,3.17
2022-08-18T06:01:46.634Z,3.35
2022-08-18T06:04:38.839Z,4.53
2022-08-18T06:07:35.761Z,4.78
2022-08-18T06:10:21.879Z,4.00
2022-08-18T06:13:10.171Z,3.50
2022-08-18T06:16:17.235Z,3.08
2022-08-18T06:19:20.037Z,4.05
2022-08-18T06:22:17.701Z,4.05
2022-08-18T06:25:18.659Z,3.60
2022-08-18T06:28:08.934Z,3.42
2022-08-18T06:31:05.216Z,3.03
2022-08-18T06:33:59.349Z,2.67
2022-08-18T06:36:55.068Z,3.22
2022-08-18T06:39:53.116Z,2.95
2022-08-18T06:42:40.533Z,3.63
2022-08-18T06:45:35.772Z,3.70
2022-08-18T06:48:37.560Z,3.85
2022-08-18T06:54:17.695Z,4.03
2022-08-18T06:57:03.184Z,3.78
2022-08-18T06:59:59.466Z,3.70
2022-08-18T07:02:54.229Z,4.18
2022-08-18T07:06:03.632Z,3.83
2022-08-18T07:08:54.342Z,3.60
2022-08-18T07:11:39.686Z,3.33
2022-08-18T07:14:25.028Z,3.65
2022-08-18T07:17:14.150Z,3.72
2022-08-18T07:20:08.009Z,4.00
2022-08-18T07:22:57.162Z,3.88
2022-08-18T07:25:48.746Z,4.63
2022-08-18T07:28:43.026Z,4.18
2022-08-18T07:31:40.169Z,4.03
2022-08-18T07:34:33.610Z,3.80
2022-08-18T07:37:29.474Z,4.00
2022-08-18T07:40:21.159Z,3.53
2022-08-18T07:43:30.719Z,3.83
2022-08-18T07:46:31.658Z,2.88
2022-08-18T07:49:22.292Z,3.75
2022-08-18T07:52:36.448Z,3.65
2022-08-18T07:55:28.653Z,3.88
2022-08-18T07:58:41.899Z,4.10
2022-08-18T08:02:10.451Z,3.97
2022-08-18T08:05:16.365Z,3.40
2022-08-18T08:08:07.141Z,3.30
2022-08-18T08:11:08.224Z,2.95
2022-08-18T08:14:31.516Z,3.78
2022-08-18T08:17:19.254Z,3.78
2022-08-18T08:20:26.144Z,3.40
2022-08-18T08:23:56.438Z,4.38
2022-08-18T08:26:50.540Z,4.22
2022-08-18T08:29:46.973Z,4.03
2022-08-18T08:32:36.250Z,3.63
2022-08-18T08:35:49.524Z,3.80
2022-08-18T08:38:54.019Z,3.40
2022-08-18T08:41:48.485Z,3.47
2022-08-18T08:44:58.385Z,4.45
2022-08-18T08:47:58.300Z,3.88
2022-08-18T08:50:53.489Z,3.60
2022-08-18T08:53:47.052Z,3.58
2022-08-18T08:56:42.454Z,3.80
2022-08-18T08:59:27.877Z,4.47
2022-08-18T09:02:32.319Z,3.90
2022-08-18T09:05:27.964Z,4.53
2022-08-18T09:08:51.766Z,4.10
2022-08-18T09:11:54.854Z,4.45
2022-08-18T09:15:20.013Z,4.50
2022-08-18T09:18:10.773Z,4.43
2022-08-18T09:21:01.195Z,5.47
2022-08-18T09:23:51.221Z,6.60
2022-08-18T09:26:49.233Z,5.13
2022-08-18T09:29:37.704Z,5.47
2022-08-18T09:32:43.874Z,4.80
2022-08-18T09:36:10.136Z,3.97
2022-08-18T09:39:08.639Z,5.07
2022-08-18T09:42:03.836Z,5.30
2022-08-18T09:44:50.234Z,4.82
2022-08-18T09:50:37.150Z,4.53
2022-08-18T09:51:12.897Z,4.40
2022-08-18T09:54:11.693Z,4.43
2022-08-18T09:57:30.610Z,4.47
2022-08-18T10:00:30.685Z,4.95
2022-08-18T10:03:35.682Z,4.15
2022-08-18T10:06:20.967Z,3.58
2022-08-18T10:09:44.082Z,4.22
2022-08-18T10:12:42.951Z,5.05
2022-08-18T10:15:33.763Z,4.57
2022-08-18T10:18:37.603Z,3.63
2022-08-18T10:21:48.894Z,3.78
2022-08-18T10:24:54.076Z,3.88
2022-08-18T10:27:42.522Z,4.70
2022-08-18T10:30:28.193Z,4.22
2022-08-18T10:33:54.548Z,3.83
2022-08-18T10:36:48.673Z,3.13
2022-08-18T10:39:41.776Z,4.35
2022-08-18T10:42:53.549Z,3.50
2022-08-18T10:46:05.977Z,4.07
2022-08-18T10:49:05.444Z,4.55
2022-08-18T10:52:09.632Z,3.92
2022-08-18T10:55:14.914Z,3.10
2022-08-18T10:58:27.929Z,3.92
2022-08-18T11:01:33.063Z,4.00
2022-08-18T11:04:46.561Z,4.22
2022-08-18T11:07:52.058Z,4.20
2022-08-18T11:11:06.589Z,4.07
2022-08-18T11:14:31.665Z,3.75
2022-08-18T11:17:50.104Z,3.80
2022-08-18T11:20:35.769Z,3.95
2022-08-18T11:23:21.267Z,3.65
2022-08-18T11:26:18.302Z,3.40
2022-08-18T11:29:28.543Z,3.80
2022-08-18T11:32:31.394Z,4.05
2022-08-18T11:35:21.869Z,3.60
2022-08-18T11:38:12.616Z,4.05
2022-08-18T11:41:19.748Z,4.15
2022-08-18T11:44:13.419Z,3.92
2022-08-18T11:47:13.151Z,4.47
2022-08-18T11:50:08.972Z,4.00
2022-08-18T11:52:55.080Z,4.65
2022-08-18T11:55:40.435Z,4.03
2022-08-18T11:58:44.149Z,3.38
2022-08-18T12:01:41.994Z,4.20
2022-08-18T12:04:41.272Z,4.28
2022-08-18T12:07:31.938Z,4.53
2022-08-18T12:10:26.573Z,4.70
2022-08-18T12:13:24.110Z,5.78
2022-08-18T12:16:31.463Z,4.05
2022-08-18T12:19:17.034Z,4.00
2022-08-18T12:22:18.694Z,4.15
2022-08-18T12:25:12.300Z,3.67
2022-08-18T12:27:57.634Z,3.65
2022-08-18T12:30:42.905Z,4.82
2022-08-18T12:33:34.334Z,3.95
2022-08-18T12:36:33.514Z,4.50
2022-08-18T12:39:19.517Z,3.80
2022-08-18T12:42:05.468Z,3.35
2022-08-18T12:44:51.324Z,4.03
2022-08-18T12:47:40.444Z,4.13
2022-08-18T12:50:31.267Z,3.65
2022-08-18T12:53:18.783Z,4.00
2022-08-18T12:56:30.034Z,3.90
2022-08-18T12:59:15.259Z,3.83
2022-08-18T13:02:03.104Z,4.50
2022-08-18T13:04:48.586Z,4.47
2022-08-18T13:10:44.755Z,3.58
2022-08-18T13:13:30.138Z,3.70
2022-08-18T13:16:16.367Z,3.63
2022-08-18T13:19:02.555Z,4.78
2022-08-18T13:21:51.897Z,3.95
2022-08-18T13:24:37.773Z,4.03
2022-08-18T13:27:23.891Z,4.18
2022-08-18T13:30:29.109Z,4.43
2022-08-18T13:33:34.668Z,3.80
2022-08-18T13:36:25.500Z,4.28
2022-08-18T13:39:18.834Z,4.45
2022-08-18T13:42:26.317Z,3.83
2022-08-18T13:45:24.889Z,3.42
2022-08-18T13:48:11.311Z,4.18
2022-08-18T13:51:01.025Z,3.47
2022-08-18T13:53:57.439Z,4.05
2022-08-18T13:56:51.728Z,3.05
2022-08-18T13:59:37.572Z,3.72
2022-08-18T14:02:31.827Z,3.95
2022-08-18T14:05:17.954Z,3.83
2022-08-18T14:08:05.755Z,4.15
2022-08-18T14:10:54.572Z,3.65
2022-08-18T14:13:43.617Z,3.50
2022-08-18T14:16:30.944Z,4.70
2022-08-18T14:19:17.622Z,4.35
2022-08-18T14:22:03.738Z,4.35
2022-08-18T14:24:49.473Z,4.45
2022-08-18T14:27:38.067Z,3.85
2022-08-18T14:30:23.232Z,4.78
2022-08-18T14:33:11.602Z,4.03
2022-08-18T14:36:06.745Z,4.85
2022-08-18T14:38:55.428Z,4.10
2022-08-18T14:41:40.905Z,3.53
2022-08-18T14:44:34.848Z,4.50
2022-08-18T14:47:24.487Z,4.15
2022-08-18T14:50:11.311Z,3.97
2022-08-18T14:52:56.873Z,3.92
2022-08-18T14:55:44.693Z,4.20
2022-08-18T14:58:34.892Z,4.43
2022-08-18T15:01:20.233Z,4.53
2022-08-18T15:04:18.826Z,5.18
2022-08-18T15:07:06.025Z,4.75
2022-08-18T15:10:14.888Z,3.60
2022-08-18T15:13:00.765Z,5.25
2022-08-18T15:15:51.222Z,5.22
2022-08-18T15:18:37.358Z,4.20
2022-08-18T15:21:35.469Z,4.45
2022-08-18T15:24:24.445Z,4.65
2022-08-18T15:27:10.356Z,4.03
2022-08-18T15:30:06.945Z,4.88
2022-08-18T15:32:54.303Z,4.07
2022-08-18T15:35:43.863Z,5.35
2022-08-18T15:38:29.568Z,5.38
2022-08-18T15:41:44.090Z,4.95
2022-08-18T15:44:30.823Z,4.82
2022-08-18T15:47:21.078Z,4.90
2022-08-18T15:50:21.893Z,4.32
2022-08-18T15:53:12.337Z,4.78
2022-08-18T15:55:58.903Z,5.00
2022-08-18T15:58:50.548Z,4.57
2022-08-18T16:01:39.568Z,5.47
2022-08-18T16:04:27.873Z,4.57
2022-08-18T16:07:13.456Z,4.47
2022-08-18T16:09:58.693Z,4.45
2022-08-18T16:12:46.045Z,4.68
2022-08-18T16:15:37.237Z,4.20
2022-08-18T16:18:22.674Z,4.47
2022-08-18T16:21:10.641Z,4.82
2022-08-18T16:23:55.878Z,5.35
2022-08-18T16:26:41.240Z,4.57
2022-08-18T16:29:26.584Z,4.45
2022-08-18T16:32:16.218Z,4.65
2022-08-18T16:35:02.179Z,4.63
2022-08-18T16:37:48.304Z,4.07
2022-08-18T16:40:33.450Z,4.50
2022-08-18T16:43:18.958Z,4.68
2022-08-18T16:46:09.117Z,4.88
2022-08-18T16:48:56.559Z,3.85
2022-08-18T16:54:28.241Z,4.25
2022-08-18T16:57:13.833Z,4.82
2022-08-18T16:59:59.292Z,4.90
2022-08-18T17:02:44.746Z,3.97
2022-08-18T17:05:30.328Z,4.22
2022-08-18T17:08:15.716Z,4.53
2022-08-18T17:11:02.651Z,3.97
2022-08-18T17:13:49.898Z,4.45
2022-08-18T17:16:37.480Z,4.35
2022-08-18T17:19:24.869Z,4.00
2022-08-18T17:22:10.620Z,3.90
2022-08-18T17:25:01.040Z,4.40
2022-08-18T17:27:48.624Z,3.65
2022-08-18T17:30:45.366Z,3.95
2022-08-18T17:33:33.484Z,4.55
2022-08-18T17:36:39.114Z,4.15
2022-08-18T17:39:39.279Z,3.63
2022-08-18T17:42:24.650Z,3.60
2022-08-18T17:45:13.072Z,3.55
2022-08-18T17:48:15.897Z,4.32
2022-08-18T17:51:08.295Z,7.95
2022-08-18T17:53:53.857Z,5.20
2022-08-18T17:56:46.369Z,4.30
2022-08-18T17:59:45.368Z,4.28
2022-08-18T18:02:37.581Z,5.18
2022-08-18T18:05:22.896Z,3.38
2022-08-18T18:08:09.776Z,3.17
2022-08-18T18:11:10.301Z,2.85
2022-08-18T18:13:55.747Z,2.88
2022-08-18T18:16:41.033Z,2.95
2022-08-18T18:19:26.788Z,2.40
2022-08-18T18:22:20.414Z,2.30
2022-08-18T18:25:06.739Z,2.35
2022-08-18T18:27:52.318Z,2.92
2022-08-18T18:30:37.788Z,3.53
2022-08-18T18:33:23.127Z,2.75
2022-08-18T18:36:08.866Z,2.75
2022-08-18T18:39:07.791Z,2.67
2022-08-18T18:41:54.107Z,3.85
2022-08-18T18:44:49.982Z,3.72
2022-08-18T18:47:57.506Z,3.28
2022-08-18T18:50:58.983Z,3.60
2022-08-18T18:53:54.341Z,3.10
2022-08-18T18:56:51.537Z,2.40
2022-08-18T19:00:00.347Z,2.75
2022-08-18T19:03:18.155Z,1.83
2022-08-18T19:06:28.212Z,2.42
2022-08-18T19:09:37.219Z,2.45
2022-08-18T19:12:30.826Z,2.28
2022-08-18T19:15:17.503Z,1.60
2022-08-18T19:18:19.081Z,1.63
2022-08-18T19:22:02.484Z,2.13
2022-08-18T19:24:20.753Z,2.13
2022-08-18T19:27:11.030Z,2.28
2022-08-18T19:30:01.615Z,3.78
2022-08-18T19:32:49.788Z,2.90
2022-08-18T19:35:58.644Z,2.17
2022-08-18T19:38:47.508Z,4.97
2022-08-18T19:41:59.224Z,1.70
2022-08-18T19:45:16.472Z,1.40
2022-08-18T19:48:13.090Z,1.17
2022-08-18T19:51:08.515Z,1.10
2022-08-18T19:54:18.757Z,0.77
2022-08-18T19:57:07.067Z,1.10
2022-08-18T20:00:19.185Z,1.00
2022-08-18T20:03:23.467Z,1.90
2022-08-18T20:06:33.710Z,2.03
2022-08-18T20:09:23.656Z,1.08
2022-08-18T20:12:21.664Z,0.88
2022-08-18T20:17:56.880Z,0.88
2022-08-18T20:20:42.301Z,0.80
2022-08-18T20:23:56.252Z,0.68
2022-08-18T20:26:45.456Z,0.80
2022-08-18T20:29:33.923Z,0.50
2022-08-18T20:32:21.591Z,0.47
2022-08-18T20:35:19.680Z,0.60
2022-08-18T20:38:31.716Z,0.60
2022-08-18T20:41:28.397Z,0.88
2022-08-18T20:44:42.860Z,0.65
2022-08-18T20:47:48.383Z,0.60
2022-08-18T20:50:51.823Z,0.88
2022-08-18T20:54:02.337Z,0.88
2022-08-18T20:56:54.960Z,0.80
2022-08-18T20:59:55.902Z,1.15
2022-08-18T21:02:48.283Z,1.00
2022-08-18T21:05:36.860Z,1.00
2022-08-18T21:08:30.201Z,1.00
2022-08-18T21:11:34.162Z,1.30
2022-08-18T21:14:29.887Z,1.20
2022-08-18T21:17:15.381Z,1.13
2022-08-18T21:20:03.482Z,2.10
2022-08-18T21:22:48.924Z,1.77
2022-08-18T21:25:34.836Z,1.70
2022-08-18T21:28:22.578Z,1.80
2022-08-18T21:31:41.615Z,1.85
2022-08-18T21:34:34.928Z,2.13
2022-08-18T21:37:21.033Z,1.90
2022-08-18T21:40:07.294Z,2.13
2022-08-18T21:42:52.936Z,2.15
2022-08-18T21:45:48.464Z,2.33
2022-08-18T21:48:44.999Z,2.60
2022-08-18T21:51:41.907Z,2.72
2022-08-18T21:54:34.459Z,3.45
2022-08-18T21:57:23.109Z,2.95
2022-08-18T22:00:11.754Z,3.17
2022-08-18T22:03:16.099Z,3.92
2022-08-18T22:06:03.109Z,3.85
2022-08-18T22:08:56.390Z,3.90
2022-08-18T22:12:01.175Z,3.60
2022-08-18T22:14:55.084Z,3.53
2022-08-18T22:17:49.702Z,4.43
2022-08-18T22:20:51.922Z,4.43
2022-08-18T22:23:44.591Z,3.53
2022-08-18T22:26:33.729Z,3.97
2022-08-18T22:29:29.994Z,3.80
2022-08-18T22:32:15.843Z,4.07
2022-08-18T22:35:02.631Z,4.05
2022-08-18T22:37:50.809Z,3.90
2022-08-18T22:40:36.590Z,4.25
2022-08-18T22:43:21.957Z,3.25
2022-08-18T22:46:07.411Z,3.78
2022-08-18T22:48:53.423Z,3.17
2022-08-18T22:51:39.000Z,3.70
2022-08-18T22:54:24.407Z,4.25
2022-08-18T22:57:09.536Z,3.50
2022-08-18T22:59:56.075Z,3.55
2022-08-18T23:02:44.012Z,3.10
2022-08-18T23:05:29.598Z,3.35
2022-08-18T23:08:14.956Z,3.50
2022-08-18T23:11:00.804Z,3.83
2022-08-18T23:13:46.084Z,3.85
2022-08-18T23:16:32.478Z,4.00
2022-08-18T23:19:20.431Z,3.55
2022-08-18T23:22:05.650Z,4.65
2022-08-18T23:24:51.039Z,3.53
2022-08-18T23:27:36.628Z,3.78
2022-08-18T23:30:22.478Z,3.83
2022-08-18T23:33:07.896Z,2.97
2022-08-18T23:35:53.826Z,3.33
2022-08-18T23:38:39.078Z,3.10
2022-08-18T23:41:24.502Z,3.90
2022-08-18T23:44:09.957Z,2.63
2022-08-18T23:46:57.037Z,3.17
2022-08-18T23:49:42.169Z,2.90
2022-08-18T23:52:27.551Z,3.42
2022-08-18T23:55:14.068Z,3.17
2022-08-18T23:57:59.536Z,3.22
